Antimony, Utah
Current Conditions -  °F | °C
As of 8:53 PM on Thursday 27 Nov 2014 (Local Time) from KBCE Reporting Station
Clear Clear  
Wind Chill: 18°   Ceiling: Unl
Heat Index: 25°   Visibility: 10mi
Dew Point: 18°   Wind: 6mph
Humidity: 75%   Direction: 240°WSW
Pressure: 30.37"   Gusts: NA
Location:  38.12°N, 112°W
Report Text: KBCE 280353Z AUTO 24005KT 10SM CLR M04/M08 A3037 RMK AO2 SLP263 T10391078
Loading
Personal Weather Stations






























Interactive Weather Map New forecast layout! Learn more

10-Day Weather Forecast

Advertisements
Track Severe Weather on mobile